Airfield :
LOGIN :

Register | Disclaimer

   EN    FR    IT 

 










Legend :    VFR   Marginal VFR   IFR   Intensive IFR   Very Intensive IFR
Visi :
Ceiling :
>= 8 km
>= 3000ft
5 to 8 km
1000 to 3000 ft
1500m to 5 km
500 to 1000 ft
800 to 1500m
200 to 500 ft
< 800m
< 200 ft
Symbols :   Thunderstorms  Fog  Heavy snow  Heavy precipitations  Wind > 20 kt
SIGMETs :     Misc.  Thunderstorms  Icing  Turbulence  Mountain Waves  Volcanic Ashes






- Airport Elevation : 1213 ft
- IATA code : SCQ


LEST - Santiago de Compostela

CURRENT METAR :
  • 061900Z 05005KT 020V090 CAVOK 08/02 Q1023 NOSIG

EXPIRED METARs :
  • 061830Z 07005KT 020V110 CAVOK 08/02 Q1023 NOSIG
  • 061800Z 07005KT 020V110 CAVOK 09/03 Q1023 NOSIG
  • 061730Z 07007KT 030V110 CAVOK 10/02 Q1022 NOSIG
  • 061700Z 06007KT 030V100 CAVOK 11/03 Q1022 NOSIG
  • 061630Z 06009KT 020V090 CAVOK 11/03 Q1022 NOSIG

TAF TAF LEST
Valid from the 06 at 18:00 until the 07 at 18:00 UTC


061700Z 0618/0718 08007KT CAVOK TX11/0714Z TNM00/0707Z
PROB30
TEMPO 0712/0718 06015G25KT



MET'MAP, your aeronautical weather chart ! - Copyright ORBIFLY December 2007 - Disclaimer

ORBIFLY MET'MAP TEAM :

Programming & Development : Alexandra Zaïnal
Original concept : Baudouin d'Aumeries
Technical & hardware support : Manuel Goepfert
Assistance : Marc-Olivier Méhu




SOURCES & CREDITS :

   NOAA